Time;durP1;ratioP1;P1;durP2;ratioP2;P2;SDS_P1;SDS_P2;PMS_P1;PMS_P2;Temp;Humidity;BMP_temperature;BMP_pressure;BME280_temperature;BME280_humidity;BME280_pressure;Samples;Min_cycle;Max_cycle;Signal;HPM_P1;HPM_P2
2023/04/29 00:01:24;;;;;;;7.90;6.20;;;11.80;99.90;;;;;;5054504;28;20495;-50
2023/04/29 00:03:51;;;;;;;12.87;7.63;;;11.80;99.90;;;;;;5054141;28;20508;-50
2023/04/29 00:06:17;;;;;;;7.00;6.37;;;11.80;99.90;;;;;;5054230;28;20457;-51
2023/04/29 00:08:44;;;;;;;13.90;6.60;;;11.70;99.90;;;;;;5054155;28;20452;-51
2023/04/29 00:11:11;;;;;;;6.87;6.20;;;11.70;99.90;;;;;;5054519;28;20454;-50
2023/04/29 00:13:39;;;;;;;15.13;7.00;;;11.70;99.90;;;;;;5049213;28;20834;-50
2023/04/29 00:16:07;;;;;;;7.13;6.10;;;11.70;99.90;;;;;;5054194;28;20448;-50
2023/04/29 00:18:36;;;;;;;11.03;6.30;;;11.70;99.90;;;;;;5054477;28;20454;-50
2023/04/29 00:21:04;;;;;;;7.03;6.30;;;11.70;99.90;;;;;;5053668;28;20482;-50
2023/04/29 00:23:31;;;;;;;7.83;5.80;;;11.70;99.90;;;;;;5053518;28;20491;-51
2023/04/29 00:25:58;;;;;;;7.47;6.73;;;11.70;99.90;;;;;;5053972;28;20506;-50
2023/04/29 00:28:24;;;;;;;8.37;6.10;;;11.60;99.90;;;;;;5053919;28;20482;-50
2023/04/29 00:30:52;;;;;;;7.90;5.93;;;11.60;99.90;;;;;;5053389;28;20963;-50
2023/04/29 00:33:18;;;;;;;7.10;6.17;;;11.60;99.90;;;;;;5047728;28;20954;-51
2023/04/29 00:35:46;;;;;;;19.57;6.87;;;11.60;99.90;;;;;;5053113;28;20542;-50
2023/04/29 00:38:13;;;;;;;6.13;5.53;;;11.60;99.90;;;;;;5053844;28;20449;-50
2023/04/29 00:40:40;;;;;;;7.40;6.20;;;11.60;99.90;;;;;;5053530;28;20512;-50
2023/04/29 00:43:06;;;;;;;12.17;6.20;;;11.60;99.90;;;;;;5053893;28;20487;-50
2023/04/29 00:45:33;;;;;;;9.00;6.27;;;11.60;99.90;;;;;;5053638;28;20830;-50
2023/04/29 00:47:59;;;;;;;9.13;6.77;;;11.60;99.90;;;;;;5053145;28;20465;-50
2023/04/29 00:50:26;;;;;;;6.90;6.30;;;11.50;99.90;;;;;;5052745;28;20442;-50
2023/04/29 00:52:54;;;;;;;6.97;6.27;;;11.50;99.90;;;;;;5052362;28;20457;-49
2023/04/29 00:55:22;;;;;;;9.20;6.60;;;11.50;99.90;;;;;;5053139;28;20543;-50
2023/04/29 00:57:51;;;;;;;11.00;6.70;;;11.50;99.90;;;;;;5053540;28;20499;-50
2023/04/29 01:00:18;;;;;;;7.27;6.20;;;11.40;99.90;;;;;;5053322;28;20448;-51
2023/04/29 01:02:46;;;;;;;8.63;6.53;;;11.40;99.90;;;;;;5052857;28;20544;-50
2023/04/29 01:05:13;;;;;;;6.70;6.07;;;11.40;99.90;;;;;;5052965;28;20474;-50
2023/04/29 01:07:48;;;;;;;9.97;6.30;;;11.40;99.90;;;;;;5053394;28;20521;-50
2023/04/29 01:10:26;;;;;;;7.63;6.30;;;11.40;99.90;;;;;;5033091;28;20456;-50
2023/04/29 01:13:00;;;;;;;11.43;7.13;;;11.40;99.90;;;;;;5033070;28;20449;-49
2023/04/29 01:15:32;;;;;;;7.10;6.50;;;11.40;99.90;;;;;;5033004;28;20464;-50
2023/04/29 01:18:03;;;;;;;7.60;6.20;;;11.40;99.90;;;;;;5033224;28;20440;-50
2023/04/29 01:20:32;;;;;;;6.83;6.13;;;11.40;99.90;;;;;;5048482;28;20452;-50
2023/04/29 01:22:58;;;;;;;6.27;5.70;;;11.40;99.90;;;;;;5052843;28;20458;-50
2023/04/29 01:25:27;;;;;;;9.53;7.40;;;11.40;99.90;;;;;;5051303;28;20470;-51
2023/04/29 01:28:02;;;;;;;7.37;6.57;;;11.40;99.90;;;;;;5052516;28;21005;-52
2023/04/29 01:30:40;;;;;;;9.77;6.33;;;11.30;99.90;;;;;;5052786;28;20444;-50
2023/04/29 01:33:17;;;;;;;9.27;6.93;;;11.30;99.90;;;;;;5051467;28;20425;-49
2023/04/29 01:35:58;;;;;;;8.20;6.70;;;11.30;1.40;;;;;;5049734;28;20506;-51
2023/04/29 01:38:33;;;;;;;7.10;6.17;;;11.30;99.90;;;;;;5052640;28;20495;-51
2023/04/29 01:41:10;;;;;;;7.87;6.97;;;11.20;99.90;;;;;;5051722;28;20505;-51
2023/04/29 01:43:38;;;;;;;8.10;7.07;;;11.20;99.90;;;;;;5051153;28;20542;-51
2023/04/29 01:46:08;;;;;;;10.63;6.80;;;11.10;99.90;;;;;;5052459;28;20454;-50
2023/04/29 01:48:35;;;;;;;7.13;6.50;;;11.10;99.90;;;;;;5052443;28;20482;-50
2023/04/29 01:51:02;;;;;;;7.17;6.57;;;11.10;99.90;;;;;;5050204;28;20452;-50
2023/04/29 01:53:29;;;;;;;11.43;6.90;;;11.10;99.90;;;;;;5051740;28;20461;-50
2023/04/29 01:55:55;;;;;;;7.60;6.90;;;11.00;99.90;;;;;;5052351;28;20444;-50
2023/04/29 01:58:23;;;;;;;11.63;8.17;;;11.10;99.90;;;;;;5052107;28;20441;-51
2023/04/29 02:00:50;;;;;;;7.90;7.20;;;11.00;99.90;;;;;;5052237;28;20581;-51
2023/04/29 02:03:16;;;;;;;9.70;7.07;;;10.90;99.90;;;;;;5051647;28;20443;-51
2023/04/29 02:05:43;;;;;;;8.50;7.70;;;10.90;99.90;;;;;;5050821;28;20549;-51
2023/04/29 02:08:10;;;;;;;10.10;7.90;;;10.90;99.90;;;;;;5051066;28;20465;-51
2023/04/29 02:10:36;;;;;;;8.90;7.90;;;10.90;99.90;;;;;;5051851;28;20457;-50
2023/04/29 02:13:03;;;;;;;8.60;7.60;;;10.80;99.90;;;;;;5049875;28;20943;-51
2023/04/29 02:15:31;;;;;;;12.70;7.93;;;10.80;98.50;;;;;;5051562;28;20496;-51
2023/04/29 02:17:57;;;;;;;8.80;8.00;;;10.80;95.40;;;;;;5051908;28;20448;-51
2023/04/29 02:20:24;;;;;;;28.23;8.10;;;10.80;91.30;;;;;;5051855;28;20453;-51
2023/04/29 02:22:50;;;;;;;8.97;7.43;;;10.70;88.10;;;;;;5051724;28;20493;-50
2023/04/29 02:25:17;;;;;;;14.20;8.90;;;10.80;84.60;;;;;;5034750;28;20483;-50
2023/04/29 02:27:44;;;;;;;10.00;8.27;;;10.80;78.80;;;;;;5036868;28;20459;-51
2023/04/29 02:30:11;;;;;;;10.73;9.27;;;10.80;75.30;;;;;;5044950;28;20524;-51
2023/04/29 02:32:39;;;;;;;10.33;9.27;;;10.80;70.60;;;;;;5051788;28;20440;-51
2023/04/29 02:35:07;;;;;;;11.17;8.47;;;10.80;67.30;;;;;;5051394;28;20465;-50
2023/04/29 02:37:34;;;;;;;11.67;10.00;;;10.80;62.30;;;;;;5051767;28;20445;-50
2023/04/29 02:40:01;;;;;;;10.70;9.37;;;10.80;55.30;;;;;;5051798;28;20444;-50
2023/04/29 02:42:27;;;;;;;13.23;9.83;;;10.80;52.40;;;;;;5050796;28;20484;-51
2023/04/29 02:44:54;;;;;;;10.73;9.70;;;10.80;50.40;;;;;;5051427;28;20495;-51
2023/04/29 02:47:20;;;;;;;12.50;8.90;;;10.80;44.50;;;;;;5050277;28;20516;-51
2023/04/29 02:49:48;;;;;;;13.40;9.93;;;10.80;41.80;;;;;;5051659;28;20450;-50
2023/04/29 02:52:15;;;;;;;11.37;10.27;;;10.80;39.50;;;;;;5051615;28;20950;-51
2023/04/29 02:54:42;;;;;;;11.53;10.37;;;10.70;37.20;;;;;;5093195;22;20488;-53
2023/04/29 02:57:09;;;;;;;11.47;10.37;;;10.80;35.50;;;;;;5069319;28;20467;-52
2023/04/29 02:59:35;;;;;;;11.13;10.03;;;10.80;32.80;;;;;;5071128;28;20944;-54
2023/04/29 03:02:02;;;;;;;11.03;10.00;;;10.80;28.50;;;;;;5070754;28;20493;-52
2023/04/29 03:04:29;;;;;;;11.87;10.77;;;10.70;25.90;;;;;;5071175;28;20521;-52
2023/04/29 03:06:57;;;;;;;12.97;11.63;;;10.80;23.00;;;;;;5071331;28;20452;-53
2023/04/29 03:09:23;;;;;;;13.73;11.23;;;10.80;20.80;;;;;;5071557;28;20485;-52
2023/04/29 03:11:50;;;;;;;12.40;11.03;;;10.70;73.00;;;;;;5070589;28;20462;-53
2023/04/29 03:14:17;;;;;;;12.10;10.90;;;10.80;84.20;;;;;;5071243;28;20486;-53
2023/04/29 03:16:43;;;;;;;14.60;12.03;;;10.80;95.20;;;;;;5074876;28;20946;-53
2023/04/29 03:19:10;;;;;;;15.23;11.93;;;10.70;99.90;;;;;;5074064;28;20464;-53
2023/04/29 03:21:37;;;;;;;12.80;11.17;;;10.80;99.90;;;;;;5075031;28;20489;-52
2023/04/29 03:24:05;;;;;;;16.30;11.80;;;10.80;99.90;;;;;;5075104;28;20502;-52
2023/04/29 03:26:32;;;;;;;12.93;11.60;;;10.80;99.90;;;;;;5074440;28;20458;-52
2023/04/29 03:28:58;;;;;;;14.30;12.80;;;10.80;99.90;;;;;;5075144;28;20442;-52
2023/04/29 03:31:26;;;;;;;13.83;12.33;;;10.80;99.90;;;;;;5075168;28;20442;-53
2023/04/29 03:33:52;;;;;;;15.30;12.57;;;10.80;99.90;;;;;;5074076;28;20463;-53
2023/04/29 03:36:19;;;;;;;17.93;13.30;;;10.80;99.90;;;;;;5074989;28;20479;-53
2023/04/29 03:38:45;;;;;;;14.47;12.97;;;10.80;99.90;;;;;;5075020;28;20441;-52
2023/04/29 03:41:13;;;;;;;15.70;14.20;;;10.80;99.90;;;;;;5070195;28;20455;-52
2023/04/29 03:43:42;;;;;;;15.13;13.10;;;10.80;99.90;;;;;;5074526;28;20502;-52
2023/04/29 03:46:09;;;;;;;15.90;14.27;;;10.80;99.90;;;;;;5074582;28;20892;-53
2023/04/29 03:48:36;;;;;;;21.33;13.90;;;10.80;99.90;;;;;;5074474;28;20505;-52
2023/04/29 03:51:03;;;;;;;24.63;14.80;;;10.80;99.90;;;;;;5074078;28;20470;-51
2023/04/29 03:53:30;;;;;;;17.23;15.43;;;10.90;99.90;;;;;;5072985;28;20526;-52
2023/04/29 03:55:56;;;;;;;16.03;14.33;;;10.90;99.90;;;;;;5074279;28;20484;-53
2023/04/29 03:58:24;;;;;;;16.67;14.60;;;10.90;99.90;;;;;;5074619;28;20452;-52
2023/04/29 04:00:51;;;;;;;17.33;15.10;;;10.90;99.90;;;;;;5074389;28;20483;-52
2023/04/29 04:03:17;;;;;;;17.00;15.20;;;10.90;99.90;;;;;;5074132;28;20479;-53
2023/04/29 04:05:44;;;;;;;22.00;16.00;;;10.90;99.90;;;;;;5074252;28;20546;-53
2023/04/29 04:08:11;;;;;;;18.57;16.43;;;10.90;99.90;;;;;;5072974;28;20460;-54
2023/04/29 04:10:37;;;;;;;18.77;16.70;;;10.90;99.90;;;;;;5074262;28;20491;-55
2023/04/29 04:13:04;;;;;;;17.93;16.33;;;10.90;99.90;;;;;;5074217;28;20435;-55
2023/04/29 04:15:32;;;;;;;24.73;16.90;;;11.00;99.90;;;;;;5073690;28;20467;-55
2023/04/29 04:17:58;;;;;;;18.90;16.90;;;11.00;99.90;;;;;;5074330;28;20517;-54
2023/04/29 04:20:25;;;;;;;19.10;16.40;;;10.90;99.90;;;;;;5073232;28;20988;-54
2023/04/29 04:22:53;;;;;;;19.27;17.37;;;11.00;99.90;;;;;;5071457;28;20523;-55
2023/04/29 04:25:20;;;;;;;19.40;17.50;;;11.00;99.90;;;;;;5073678;28;20531;-54
2023/04/29 04:27:46;;;;;;;24.10;18.13;;;11.00;99.90;;;;;;5073960;28;20504;-54
2023/04/29 04:30:13;;;;;;;20.63;18.53;;;11.00;99.90;;;;;;5073692;28;20452;-55
2023/04/29 04:32:41;;;;;;;23.60;19.97;;;11.10;99.90;;;;;;5074131;28;20470;-55
2023/04/29 04:35:08;;;;;;;19.93;17.80;;;11.10;99.90;;;;;;5068530;28;20479;-55
2023/04/29 04:37:35;;;;;;;26.90;19.70;;;11.10;99.90;;;;;;5070670;28;20496;-55
2023/04/29 04:40:01;;;;;;;23.67;21.17;;;11.10;99.90;;;;;;5072760;28;20490;-55
2023/04/29 04:42:28;;;;;;;24.63;20.33;;;11.20;99.90;;;;;;5073502;28;20484;-56
2023/04/29 04:44:55;;;;;;;21.23;18.93;;;11.20;99.90;;;;;;5073157;28;20472;-55
2023/04/29 04:47:21;;;;;;;27.57;21.30;;;11.20;99.90;;;;;;5073717;28;20509;-56
2023/04/29 04:49:51;;;;;;;25.00;20.70;;;11.20;99.90;;;;;;5071988;28;20463;-56
2023/04/29 04:52:20;;;;;;;24.07;20.50;;;11.20;99.90;;;;;;5071938;28;20546;-55
2023/04/29 04:54:46;;;;;;;24.60;20.80;;;11.20;99.90;;;;;;5073228;28;20490;-54
2023/04/29 04:57:13;;;;;;;21.37;19.07;;;11.20;99.90;;;;;;5072402;28;20467;-56
2023/04/29 04:59:39;;;;;;;22.40;20.20;;;11.20;99.90;;;;;;5073164;28;20504;-54
2023/04/29 05:02:07;;;;;;;25.77;22.30;;;11.20;99.90;;;;;;5073346;28;20484;-54
2023/04/29 05:04:33;;;;;;;31.93;21.20;;;11.30;99.90;;;;;;5071508;28;20488;-56
2023/04/29 05:07:02;;;;;;;22.83;20.53;;;11.30;99.90;;;;;;5053203;28;20800;-55
2023/04/29 05:09:28;;;;;;;23.60;21.10;;;11.30;99.90;;;;;;5053164;28;20449;-55
2023/04/29 05:11:55;;;;;;;25.48;20.30;;;11.30;99.90;;;;;;5052107;28;20540;-56
2023/04/29 05:14:21;;;;;;;36.20;22.20;;;11.30;99.90;;;;;;5066229;28;20657;-56
2023/04/29 05:16:48;;;;;;;25.40;22.57;;;11.30;99.90;;;;;;5072351;28;21027;-57
2023/04/29 05:19:14;;;;;;;23.27;20.87;;;11.30;99.90;;;;;;5072880;28;20442;-55
2023/04/29 05:21:41;;;;;;;23.27;19.50;;;11.30;99.90;;;;;;5072543;28;20973;-56
2023/04/29 05:24:09;;;;;;;22.90;20.60;;;11.20;99.90;;;;;;5072500;28;20508;-57
2023/04/29 05:26:35;;;;;;;23.10;20.70;;;11.30;99.90;;;;;;5072696;28;20482;-56
2023/04/29 05:29:02;;;;;;;22.70;19.87;;;11.20;99.90;;;;;;5072841;28;20451;-55
2023/04/29 05:31:29;;;;;;;28.70;22.23;;;11.30;99.90;;;;;;5070354;28;20463;-55
2023/04/29 05:33:55;;;;;;;26.83;22.50;;;11.30;99.90;;;;;;5072330;28;20504;-56
2023/04/29 05:36:22;;;;;;;25.90;21.87;;;11.30;99.90;;;;;;5072326;28;20884;-56
2023/04/29 05:38:48;;;;;;;24.00;20.93;;;11.30;99.90;;;;;;5072184;28;20457;-56
2023/04/29 05:41:16;;;;;;;24.77;20.87;;;11.30;99.90;;;;;;5072371;28;20467;-57
2023/04/29 05:43:43;;;;;;;24.37;21.37;;;11.30;99.90;;;;;;5070319;28;20520;-56
2023/04/29 05:46:09;;;;;;;27.23;23.00;;;11.30;99.90;;;;;;5072499;28;20525;-56
2023/04/29 05:48:36;;;;;;;23.67;21.17;;;11.30;99.90;;;;;;5072878;28;20466;-56
2023/04/29 05:51:03;;;;;;;25.00;21.37;;;11.30;99.90;;;;;;5075420;28;20443;-64
2023/04/29 05:53:30;;;;;;;27.13;24.20;;;11.30;99.90;;;;;;5074469;28;20439;-56
2023/04/29 05:55:57;;;;;;;25.20;22.10;;;11.30;99.90;;;;;;5075131;28;20482;-56
2023/04/29 05:58:25;;;;;;;26.00;21.03;;;11.30;99.90;;;;;;5071772;28;20459;-55
2023/04/29 06:00:52;;;;;;;22.60;20.37;;;11.30;99.90;;;;;;5072151;28;20964;-56
2023/04/29 06:03:18;;;;;;;27.07;23.40;;;11.30;99.90;;;;;;5072034;28;20561;-56
2023/04/29 06:05:45;;;;;;;31.70;22.30;;;11.30;99.90;;;;;;5071609;28;20517;-57
2023/04/29 06:08:11;;;;;;;25.37;22.57;;;11.30;99.90;;;;;;5071907;28;20572;-56
2023/04/29 06:10:38;;;;;;;29.40;24.13;;;11.30;99.90;;;;;;5072162;28;20505;-56
2023/04/29 06:13:04;;;;;;;26.53;23.63;;;11.30;99.90;;;;;;5066777;28;20533;-56
2023/04/29 06:15:32;;;;;;;27.17;23.30;;;11.30;99.90;;;;;;5070641;28;20534;-56
2023/04/29 06:17:59;;;;;;;29.33;24.00;;;11.30;99.90;;;;;;5071846;28;20476;-55
2023/04/29 06:20:26;;;;;;;28.53;23.87;;;11.30;99.90;;;;;;5071737;28;20451;-56
2023/04/29 06:22:52;;;;;;;33.07;29.33;;;11.30;99.90;;;;;;5071616;28;20503;-56
2023/04/29 06:25:19;;;;;;;27.77;22.50;;;11.30;99.90;;;;;;5071597;28;20550;-56
2023/04/29 06:27:45;;;;;;;26.93;21.37;;;11.20;99.90;;;;;;5069396;28;20461;-56
2023/04/29 06:30:13;;;;;;;30.83;23.20;;;11.20;99.90;;;;;;5071465;28;20476;-55
2023/04/29 06:32:40;;;;;;;21.70;19.40;;;11.20;99.90;;;;;;5070148;28;20542;-56
2023/04/29 06:35:08;;;;;;;23.27;18.97;;;11.10;99.90;;;;;;5071248;28;20459;-55
2023/04/29 06:37:34;;;;;;;22.97;18.80;;;11.10;99.90;;;;;;5071828;28;20456;-56
2023/04/29 06:40:01;;;;;;;24.23;18.67;;;11.10;99.90;;;;;;5071929;28;20482;-56
2023/04/29 06:42:27;;;;;;;25.30;18.27;;;11.10;99.90;;;;;;5071935;28;20505;-56
2023/04/29 06:44:54;;;;;;;18.13;16.30;;;11.10;99.90;;;;;;5071439;28;20520;-56
2023/04/29 06:47:21;;;;;;;17.27;14.87;;;11.10;99.90;;;;;;5070038;28;20535;-56
2023/04/29 06:49:49;;;;;;;14.23;12.83;;;11.10;99.90;;;;;;5073685;28;21046;-57
2023/04/29 06:52:15;;;;;;;14.50;13.10;;;11.00;99.90;;;;;;5075684;28;20918;-56
2023/04/29 06:54:42;;;;;;;12.87;11.60;;;11.00;99.90;;;;;;5075371;28;20483;-56
2023/04/29 06:57:09;;;;;;;13.73;12.33;;;11.00;99.90;;;;;;5076028;28;20533;-57
2023/04/29 06:59:35;;;;;;;13.30;11.97;;;10.90;99.90;;;;;;5075686;28;20464;-55
2023/04/29 07:02:02;;;;;;;13.20;11.37;;;10.80;99.90;;;;;;5073646;28;20464;-55
2023/04/29 07:04:29;;;;;;;12.23;11.13;;;10.90;99.90;;;;;;5076547;28;20462;-57
2023/04/29 07:06:58;;;;;;;12.87;11.57;;;10.80;99.90;;;;;;5076256;28;20462;-55
2023/04/29 07:09:26;;;;;;;12.63;11.40;;;10.80;99.90;;;;;;5075634;28;20456;-55
2023/04/29 07:11:52;;;;;;;19.93;13.00;;;10.80;99.90;;;;;;5075303;28;20451;-55
2023/04/29 07:14:21;;;;;;;12.40;11.07;;;10.80;99.90;;;;;;5074914;28;20451;-55
2023/04/29 07:16:47;;;;;;;14.43;12.93;;;10.70;99.90;;;;;;5074575;28;20548;-55
2023/04/29 07:19:14;;;;;;;18.63;11.80;;;10.60;99.90;;;;;;5074169;28;21034;-57
2023/04/29 07:21:40;;;;;;;13.47;12.17;;;10.70;99.90;;;;;;5074382;28;20960;-55
2023/04/29 07:24:08;;;;;;;16.27;14.03;;;10.60;99.90;;;;;;5074642;28;21000;-56
2023/04/29 07:26:35;;;;;;;14.20;12.70;;;10.70;99.90;;;;;;5074938;28;20475;-54
2023/04/29 07:29:01;;;;;;;14.40;13.10;;;10.70;99.90;;;;;;5074949;28;20475;-56
2023/04/29 07:31:28;;;;;;;15.27;13.73;;;10.60;99.90;;;;;;5074360;28;20509;-56
2023/04/29 07:33:55;;;;;;;14.90;13.30;;;10.60;99.90;;;;;;5074845;28;20449;-57
2023/04/29 07:36:22;;;;;;;14.63;13.10;;;10.60;99.90;;;;;;5074020;28;20483;-55
2023/04/29 07:38:48;;;;;;;16.73;12.63;;;10.60;99.90;;;;;;5074919;28;21004;-56
2023/04/29 07:41:16;;;;;;;17.17;13.90;;;10.70;99.90;;;;;;5074628;28;20937;-55
2023/04/29 07:43:43;;;;;;;17.70;12.43;;;10.60;99.90;;;;;;5074299;28;20518;-56
2023/04/29 07:46:09;;;;;;;16.13;14.27;;;10.50;99.90;;;;;;5074569;28;20483;-50
2023/04/29 07:48:38;;;;;;;14.67;13.17;;;10.60;99.90;;;;;;5073981;28;20809;-49
2023/04/29 07:51:04;;;;;;;15.30;12.43;;;10.70;99.90;;;;;;5074738;28;20530;-50
2023/04/29 07:53:31;;;;;;;14.20;12.30;;;10.70;99.90;;;;;;5073430;28;20490;-49
2023/04/29 07:55:57;;;;;;;14.90;13.50;;;10.70;99.90;;;;;;5074221;28;20553;-49
2023/04/29 07:58:27;;;;;;;12.80;11.70;;;10.80;99.90;;;;;;5074337;28;20802;-49
2023/04/29 08:00:54;;;;;;;13.83;12.47;;;10.80;99.90;;;;;;5073511;28;20444;-49
2023/04/29 08:03:21;;;;;;;13.30;12.00;;;10.80;99.90;;;;;;5074020;28;20487;-56
2023/04/29 08:05:50;;;;;;;13.70;12.40;;;10.80;99.90;;;;;;5073286;28;20950;-56
2023/04/29 08:08:16;;;;;;;12.17;10.97;;;10.70;99.90;;;;;;5074245;28;20451;-55
2023/04/29 08:10:43;;;;;;;12.27;10.83;;;10.70;99.90;;;;;;5073203;28;20518;-56
2023/04/29 08:13:09;;;;;;;11.63;10.53;;;10.70;99.90;;;;;;5074268;28;20478;-55
2023/04/29 08:15:37;;;;;;;12.87;9.73;;;10.70;99.90;;;;;;5074029;28;20528;-56
2023/04/29 08:18:05;;;;;;;12.10;11.00;;;10.60;99.90;;;;;;5074131;28;20453;-57
2023/04/29 08:20:31;;;;;;;12.87;11.77;;;10.60;99.90;;;;;;5070157;28;20511;-55
2023/04/29 08:22:59;;;;;;;15.30;13.80;;;10.60;99.90;;;;;;5073055;28;20484;-55
2023/04/29 08:25:28;;;;;;;28.43;25.77;;;10.40;99.90;;;;;;5072495;28;20491;-56
2023/04/29 08:27:54;;;;;;;17.07;15.47;;;10.40;99.90;;;;;;5073890;28;20490;-56
2023/04/29 08:30:21;;;;;;;20.33;18.13;;;10.40;99.90;;;;;;5074042;28;20501;-55
2023/04/29 08:32:49;;;;;;;21.10;19.00;;;10.40;99.90;;;;;;5073929;28;20453;-55
2023/04/29 08:35:16;;;;;;;22.93;20.53;;;10.30;99.90;;;;;;5073579;28;20505;-54
2023/04/29 08:37:42;;;;;;;22.97;19.63;;;10.30;99.90;;;;;;5072886;28;20652;-56
2023/04/29 08:40:10;;;;;;;23.73;21.33;;;10.30;99.90;;;;;;5073413;28;20535;-56
2023/04/29 08:42:37;;;;;;;22.73;20.43;;;10.40;99.90;;;;;;5073076;28;20462;-56
2023/04/29 08:45:05;;;;;;;24.20;21.57;;;10.30;99.90;;;;;;5073414;28;20469;-56
2023/04/29 08:47:32;;;;;;;23.53;20.80;;;10.20;99.90;;;;;;5073543;28;20457;-56
2023/04/29 08:50:03;;;;;;;24.70;20.37;;;10.30;99.90;;;;;;5073618;28;20529;-56
2023/04/29 08:52:31;;;;;;;32.60;22.10;;;10.20;99.90;;;;;;5072844;28;20467;-55
2023/04/29 08:54:57;;;;;;;25.90;22.40;;;10.20;99.90;;;;;;5073153;28;20898;-56
2023/04/29 08:57:26;;;;;;;30.10;24.33;;;10.20;99.90;;;;;;5073509;28;20510;-56
2023/04/29 08:59:52;;;;;;;28.50;23.70;;;10.10;99.90;;;;;;5072479;28;20470;-56
2023/04/29 09:02:22;;;;;;;29.80;23.80;;;10.10;99.90;;;;;;5073485;28;20457;-56
2023/04/29 09:04:56;;;;;;;28.43;23.60;;;10.20;99.90;;;;;;5072735;28;20540;-55
2023/04/29 09:07:25;;;;;;;32.03;26.30;;;10.20;99.90;;;;;;5073332;28;20813;-56
2023/04/29 09:09:53;;;;;;;32.00;24.83;;;10.10;99.90;;;;;;5071798;28;21049;-56
2023/04/29 09:12:20;;;;;;;32.33;27.30;;;10.10;99.90;;;;;;5072586;28;20448;-57
2023/04/29 09:14:47;;;;;;;33.77;26.43;;;10.10;99.90;;;;;;5072718;28;20532;-55
2023/04/29 09:17:15;;;;;;;33.77;26.80;;;10.20;99.90;;;;;;5072640;28;20498;-55
2023/04/29 09:19:42;;;;;;;30.63;27.33;;;10.30;99.90;;;;;;5078169;28;20455;-55
2023/04/29 09:22:10;;;;;;;36.67;28.30;;;10.40;99.90;;;;;;5077486;28;21006;-56
2023/04/29 09:24:38;;;;;;;33.97;28.87;;;10.30;99.90;;;;;;5073658;28;20892;-59
2023/04/29 09:27:05;;;;;;;33.47;28.17;;;10.40;99.90;;;;;;5075841;28;20468;-56
2023/04/29 09:29:33;;;;;;;37.63;28.50;;;10.50;99.90;;;;;;5079105;28;20466;-55
2023/04/29 09:31:59;;;;;;;40.53;31.17;;;10.50;99.90;;;;;;5078152;28;20460;-57
2023/04/29 09:34:31;;;;;;;33.30;27.37;;;10.70;99.90;;;;;;5077832;28;20908;-55
2023/04/29 09:36:58;;;;;;;35.30;29.20;;;10.60;99.90;;;;;;5079586;28;20445;-56
2023/04/29 09:39:25;;;;;;;36.43;27.80;;;10.60;99.90;;;;;;5072665;28;20445;-55
2023/04/29 09:42:01;;;;;;;40.53;27.50;;;10.80;99.90;;;;;;5071613;28;20451;-56
2023/04/29 09:44:30;;;;;;;39.40;28.70;;;10.80;99.90;;;;;;5072268;28;20485;-62
2023/04/29 09:46:58;;;;;;;34.63;26.73;;;11.00;99.90;;;;;;5073163;28;20539;-57
2023/04/29 09:49:26;;;;;;;33.63;25.73;;;10.90;99.90;;;;;;5073193;28;20493;-56
2023/04/29 09:51:53;;;;;;;27.67;24.77;;;11.00;99.90;;;;;;5071634;28;20460;-56
2023/04/29 09:54:21;;;;;;;28.37;24.00;;;11.00;99.90;;;;;;5072027;28;20456;-55
2023/04/29 09:56:50;;;;;;;40.27;24.50;;;11.00;99.90;;;;;;5070962;28;20470;-55
2023/04/29 09:59:18;;;;;;;30.90;25.40;;;11.00;99.90;;;;;;5072652;28;20490;-55
2023/04/29 10:01:48;;;;;;;33.07;23.70;;;10.90;99.90;;;;;;5072370;28;20482;-55
2023/04/29 10:04:16;;;;;;;31.27;22.67;;;11.00;99.90;;;;;;5063450;28;20483;-55
2023/04/29 10:06:45;;;;;;;27.20;23.53;;;11.10;99.90;;;;;;5072760;28;20452;-55
2023/04/29 10:09:17;;;;;;;23.40;20.93;;;10.90;99.90;;;;;;5072387;28;20450;-55
2023/04/29 10:11:45;;;;;;;26.10;21.10;;;11.00;99.90;;;;;;5073026;28;20443;-56
2023/04/29 10:14:13;;;;;;;27.83;20.97;;;11.00;20.90;;;;;;5072269;28;20456;-56
2023/04/29 10:16:46;;;;;;;25.30;19.40;;;10.90;27.80;;;;;;5073329;28;20455;-56
2023/04/29 10:19:18;;;;;;;29.87;20.60;;;11.10;30.90;;;;;;5057265;28;20941;-56
2023/04/29 10:21:46;;;;;;;27.07;20.50;;;11.30;25.30;;;;;;5070327;28;20512;-56
2023/04/29 10:24:15;;;;;;;33.53;22.47;;;11.50;24.80;;;;;;5071898;28;20479;-56
2023/04/29 10:26:43;;;;;;;23.80;19.67;;;11.70;41.70;;;;;;5072158;28;20856;-56
2023/04/29 10:29:13;;;;;;;23.77;19.80;;;11.70;47.90;;;;;;5072782;28;20447;-56
2023/04/29 10:31:42;;;;;;;25.70;19.73;;;11.70;55.70;;;;;;5073008;28;20954;-56
2023/04/29 10:34:08;;;;;;;28.00;19.47;;;11.80;53.40;;;;;;5073323;28;20449;-56
2023/04/29 10:36:37;;;;;;;25.30;19.07;;;11.70;57.20;;;;;;5072029;28;20520;-56
2023/04/29 10:39:05;;;;;;;22.00;19.50;;;11.90;60.70;;;;;;5071357;28;20530;-56
2023/04/29 10:41:37;;;;;;;24.83;17.83;;;12.00;57.30;;;;;;5073122;28;20455;-56
2023/04/29 10:44:04;;;;;;;23.13;17.80;;;12.00;61.00;;;;;;5072275;28;20530;-56
2023/04/29 10:46:31;;;;;;;19.77;17.00;;;11.70;77.90;;;;;;5072289;28;20533;-55
2023/04/29 10:49:01;;;;;;;23.37;17.70;;;11.80;82.20;;;;;;5072373;28;20500;-56
2023/04/29 10:51:31;;;;;;;19.93;16.83;;;12.20;94.40;;;;;;5067697;28;20455;-55
2023/04/29 10:54:02;;;;;;;21.63;16.87;;;12.60;99.90;;;;;;5069287;28;20533;-55
2023/04/29 10:56:40;;;;;;;17.97;16.07;;;13.00;96.30;;;;;;5071243;28;20492;-56
2023/04/29 10:59:11;;;;;;;20.90;14.93;;;13.10;99.90;;;;;;5072047;28;20504;-55
2023/04/29 11:01:43;;;;;;;31.03;16.67;;;13.30;99.90;;;;;;5070181;28;20470;-55
2023/04/29 11:04:11;;;;;;;18.10;15.27;;;13.00;99.90;;;;;;5071761;28;20473;-55
2023/04/29 11:06:44;;;;;;;16.10;14.50;;;13.10;99.90;;;;;;5072353;28;20509;-55
2023/04/29 11:09:14;;;;;;;15.27;13.47;;;13.10;99.90;;;;;;5072484;28;20446;-55
2023/04/29 11:11:46;;;;;;;16.80;14.13;;;13.20;99.90;;;;;;5067391;28;20538;-55
2023/04/29 11:14:13;;;;;;;17.67;12.70;;;13.30;99.90;;;;;;5065932;28;20440;-56
2023/04/29 11:16:47;;;;;;;16.93;14.37;;;13.30;99.90;;;;;;5073038;28;20517;-49
2023/04/29 11:19:17;;;;;;;17.93;13.63;;;13.20;99.90;;;;;;5072890;28;20941;-50
2023/04/29 11:21:45;;;;;;;18.90;13.37;;;13.10;99.90;;;;;;5073250;28;20465;-49
2023/04/29 11:24:14;;;;;;;17.53;13.30;;;13.10;99.90;;;;;;5072848;28;20490;-50
2023/04/29 11:26:42;;;;;;;25.77;14.93;;;13.00;99.90;;;;;;5071481;28;20466;-49
2023/04/29 11:29:10;;;;;;;20.03;13.67;;;13.10;99.90;;;;;;5070718;28;20484;-49
2023/04/29 11:31:37;;;;;;;18.00;13.20;;;13.00;99.90;;;;;;5072280;28;20473;-49
2023/04/29 11:34:06;;;;;;;15.50;12.90;;;13.10;99.90;;;;;;5074092;28;20930;-50
2023/04/29 11:36:34;;;;;;;15.70;12.30;;;13.00;99.90;;;;;;5074672;28;20492;-49
2023/04/29 11:39:02;;;;;;;15.53;11.67;;;13.00;99.90;;;;;;5077339;28;20631;-49
2023/04/29 11:41:29;;;;;;;14.00;11.77;;;12.90;99.90;;;;;;5075298;28;20471;-50
2023/04/29 11:43:56;;;;;;;14.30;11.90;;;12.70;99.90;;;;;;5073480;28;20524;-49
2023/04/29 11:46:23;;;;;;;11.70;10.50;;;12.70;99.90;;;;;;5075317;28;20474;-49
2023/04/29 11:48:50;;;;;;;13.80;9.30;;;12.60;99.90;;;;;;5075442;28;20488;-50
2023/04/29 11:51:18;;;;;;;14.90;10.63;;;12.70;99.90;;;;;;5077056;28;20456;-49
2023/04/29 11:53:47;;;;;;;16.00;10.67;;;12.60;99.90;;;;;;5076273;28;20443;-49
2023/04/29 11:56:13;;;;;;;16.17;10.57;;;12.80;99.90;;;;;;5074840;28;20495;-49
2023/04/29 11:58:43;;;;;;;16.67;11.00;;;12.90;99.90;;;;;;5075329;28;20449;-48
2023/04/29 12:01:10;;;;;;;13.37;11.33;;;13.00;99.90;;;;;;5074473;28;20487;-50
2023/04/29 12:03:36;;;;;;;20.33;12.17;;;13.10;99.90;;;;;;5074949;28;20490;-49
2023/04/29 12:06:03;;;;;;;12.83;10.87;;;13.30;99.90;;;;;;5078117;28;20487;-50
2023/04/29 12:08:32;;;;;;;15.43;11.90;;;13.30;99.90;;;;;;5074066;28;20452;-49
2023/04/29 12:11:01;;;;;;;11.77;9.80;;;13.60;99.90;;;;;;5071817;28;20458;-49
2023/04/29 12:13:29;;;;;;;11.27;9.47;;;13.20;99.90;;;;;;5074411;28;20457;-50
2023/04/29 12:15:57;;;;;;;10.10;9.13;;;13.10;99.90;;;;;;5075155;28;20467;-49
2023/04/29 12:18:26;;;;;;;15.70;8.83;;;13.30;99.90;;;;;;5073155;28;20464;-49
2023/04/29 12:20:54;;;;;;;10.57;9.33;;;13.30;99.90;;;;;;5074151;28;20452;-49
2023/04/29 12:23:22;;;;;;;9.53;8.57;;;13.30;99.90;;;;;;5073953;28;20449;-49
2023/04/29 12:25:50;;;;;;;10.80;8.50;;;13.40;99.90;;;;;;5073044;28;20519;-49
2023/04/29 12:28:19;;;;;;;13.47;8.50;;;13.50;99.90;;;;;;5074086;28;20545;-50
2023/04/29 12:30:47;;;;;;;7.20;6.60;;;13.80;99.90;;;;;;5074130;28;20818;-50
2023/04/29 12:33:19;;;;;;;10.20;7.80;;;13.80;99.90;;;;;;5073228;28;20573;-49